Time;durP1;ratioP1;P1;durP2;ratioP2;P2;SDS_P1;SDS_P2;PMS_P1;PMS_P2;Temp;Humidity;BMP_temperature;BMP_pressure;BME280_temperature;BME280_humidity;BME280_pressure;Samples;Min_cycle;Max_cycle;Signal;HPM_P1;HPM_P2
2024/02/06 00:00:50;;;;;;;17.47;8.53;;;;;;;;;;4957195;28;57778;-96
2024/02/06 00:03:25;;;;;;;19.33;9.88;;;;;;;;;;4951675;28;57461;-94
2024/02/06 00:05:55;;;;;;;25.13;10.80;;;;;;;;;;4947563;28;57885;-95
2024/02/06 00:08:23;;;;;;;23.50;9.15;;;;;;;;;;4950126;28;59201;-94
2024/02/06 00:10:50;;;;;;;18.88;10.27;;;;;;;;;;4947623;28;58305;-94
2024/02/06 00:13:15;;;;;;;20.73;10.00;;;;;;;;;;4932187;28;59456;-95
2024/02/06 00:15:41;;;;;;;22.88;9.77;;;;;;;;;;4939411;28;58216;-95
2024/02/06 00:18:07;;;;;;;22.48;9.27;;;;;;;;;;4950033;28;57861;-95
2024/02/06 00:20:37;;;;;;;15.73;8.90;;;;;;;;;;4947577;28;57936;-96
2024/02/06 00:23:22;;;;;;;16.45;8.60;;;;;;;;;;4948638;28;57911;-94
2024/02/06 00:25:48;;;;;;;15.68;7.85;;;;;;;;;;4947596;28;58083;-94
2024/02/06 00:28:14;;;;;;;16.73;9.02;;;;;;;;;;4949691;28;57786;-95
2024/02/06 00:30:48;;;;;;;19.48;8.73;;;;;;;;;;4946816;28;58281;-96
2024/02/06 00:33:35;;;;;;;20.80;8.23;;;;;;;;;;4949985;28;58620;-96
2024/02/06 00:36:01;;;;;;;18.20;9.32;;;;;;;;;;4947379;28;58330;-95
2024/02/06 00:38:31;;;;;;;19.10;8.13;;;;;;;;;;4941995;28;57886;-95
2024/02/06 00:41:17;;;;;;;19.08;9.05;;;;;;;;;;4956924;28;57948;-96
2024/02/06 00:43:52;;;;;;;20.33;9.50;;;;;;;;;;4952392;28;58559;-96
2024/02/06 00:46:19;;;;;;;19.85;8.07;;;;;;;;;;4948954;28;57511;-95
2024/02/06 00:49:05;;;;;;;16.02;8.18;;;;;;;;;;4945387;28;58628;-95
2024/02/06 00:51:31;;;;;;;18.95;7.72;;;;;;;;;;4950220;28;58107;-96
2024/02/06 00:53:57;;;;;;;18.75;7.68;;;;;;;;;;4946053;28;58269;-96
2024/02/06 00:56:22;;;;;;;14.70;7.07;;;;;;;;;;4934084;28;57697;-96
2024/02/06 00:58:48;;;;;;;17.25;7.35;;;;;;;;;;4950838;28;57689;-95
2024/02/06 01:01:13;;;;;;;14.95;7.43;;;;;;;;;;4963904;28;58277;-91
2024/02/06 01:03:38;;;;;;;17.60;10.07;;;;;;;;;;4949310;28;57905;-92
2024/02/06 01:06:04;;;;;;;13.55;7.22;;;;;;;;;;4949953;28;58118;-91
2024/02/06 01:08:29;;;;;;;17.13;8.45;;;;;;;;;;4953474;28;57828;-91
2024/02/06 01:10:54;;;;;;;13.15;6.75;;;;;;;;;;4949366;28;58054;-91
2024/02/06 01:13:19;;;;;;;11.60;6.65;;;;;;;;;;4962394;28;60610;-89
2024/02/06 01:15:44;;;;;;;15.95;7.40;;;;;;;;;;4946409;28;60513;-89
2024/02/06 01:18:10;;;;;;;16.33;7.33;;;;;;;;;;4948630;28;58144;-90
2024/02/06 01:20:35;;;;;;;9.93;6.50;;;;;;;;;;4950214;28;58145;-90
2024/02/06 01:23:00;;;;;;;14.63;7.63;;;;;;;;;;4948049;28;58292;-90
2024/02/06 01:25:29;;;;;;;10.60;7.33;;;;;;;;;;4949044;28;57905;-91
2024/02/06 01:27:54;;;;;;;13.43;8.48;;;;;;;;;;4949618;28;58692;-90
2024/02/06 01:30:19;;;;;;;10.88;6.47;;;;;;;;;;4947774;28;58178;-91
2024/02/06 01:32:44;;;;;;;13.30;7.47;;;;;;;;;;4949038;28;57933;-90
2024/02/06 01:35:10;;;;;;;11.25;6.75;;;;;;;;;;4948094;28;58088;-89
2024/02/06 01:37:35;;;;;;;12.10;6.85;;;;;;;;;;4949948;28;57756;-90
2024/02/06 01:40:00;;;;;;;10.18;6.65;;;;;;;;;;4951894;28;57907;-90
2024/02/06 01:42:25;;;;;;;9.70;6.20;;;;;;;;;;4948204;28;58059;-91
2024/02/06 01:44:50;;;;;;;11.43;7.65;;;;;;;;;;4950439;28;57899;-91
2024/02/06 01:47:16;;;;;;;11.30;6.47;;;;;;;;;;4949342;28;57809;-90
2024/02/06 01:49:41;;;;;;;13.67;6.63;;;;;;;;;;4950396;28;59119;-92
2024/02/06 01:52:07;;;;;;;15.32;7.35;;;;;;;;;;4962238;28;57913;-91
2024/02/06 01:54:33;;;;;;;12.77;6.68;;;;;;;;;;4950004;28;58387;-90
2024/02/06 01:56:59;;;;;;;11.93;5.97;;;;;;;;;;4948727;28;58103;-90
2024/02/06 01:59:24;;;;;;;14.38;7.25;;;;;;;;;;4949972;28;58655;-91
2024/02/06 02:01:50;;;;;;;11.88;6.90;;;;;;;;;;4948235;28;57965;-90
2024/02/06 02:04:15;;;;;;;14.95;6.97;;;;;;;;;;4962829;28;57757;-90
2024/02/06 02:06:40;;;;;;;12.10;6.87;;;;;;;;;;4948467;28;58055;-90
2024/02/06 02:09:08;;;;;;;12.03;6.70;;;;;;;;;;4948523;28;58187;-90
2024/02/06 02:11:33;;;;;;;13.07;7.68;;;;;;;;;;4949786;28;58135;-90
2024/02/06 02:13:58;;;;;;;12.38;6.40;;;;;;;;;;4950540;28;57959;-90
2024/02/06 02:16:24;;;;;;;12.20;6.20;;;;;;;;;;4946955;28;57737;-91
2024/02/06 02:18:49;;;;;;;9.17;5.43;;;;;;;;;;4947767;28;58125;-91
2024/02/06 02:21:17;;;;;;;9.50;5.97;;;;;;;;;;4946334;28;57978;-91
2024/02/06 02:23:43;;;;;;;11.40;5.43;;;;;;;;;;4950222;28;58099;-91
2024/02/06 02:26:09;;;;;;;10.63;5.95;;;;;;;;;;4962141;28;59226;-90
2024/02/06 02:28:35;;;;;;;10.50;6.20;;;;;;;;;;4962663;28;59340;-91
2024/02/06 02:31:00;;;;;;;10.10;6.00;;;;;;;;;;4960980;28;58182;-91
2024/02/06 02:33:26;;;;;;;7.13;4.60;;;;;;;;;;4949504;28;57868;-92
2024/02/06 02:35:51;;;;;;;8.27;5.33;;;;;;;;;;4947899;28;58248;-90
2024/02/06 02:38:18;;;;;;;11.00;6.50;;;;;;;;;;4951397;28;57878;-92
2024/02/06 02:40:44;;;;;;;9.18;6.32;;;;;;;;;;4948175;28;58237;-90
2024/02/06 02:43:09;;;;;;;7.78;5.15;;;;;;;;;;4950341;28;57810;-91
2024/02/06 02:45:34;;;;;;;8.97;5.27;;;;;;;;;;4950503;28;58995;-91
2024/02/06 02:47:59;;;;;;;7.25;4.65;;;;;;;;;;4950292;28;57950;-89
2024/02/06 02:50:24;;;;;;;9.90;6.05;;;;;;;;;;4950161;28;57759;-91
2024/02/06 02:52:49;;;;;;;8.40;4.72;;;;;;;;;;4950754;28;58354;-90
2024/02/06 02:55:14;;;;;;;11.48;6.07;;;;;;;;;;4951259;28;58040;-90
2024/02/06 02:57:40;;;;;;;7.93;4.90;;;;;;;;;;4950329;28;58057;-91
2024/02/06 03:00:06;;;;;;;10.15;5.68;;;;;;;;;;4950627;28;58655;-90
2024/02/06 03:02:31;;;;;;;13.60;6.40;;;;;;;;;;4949434;28;58089;-91
2024/02/06 03:04:57;;;;;;;12.13;5.80;;;;;;;;;;4948882;28;58683;-91
2024/02/06 03:07:22;;;;;;;11.93;7.03;;;;;;;;;;4962222;28;60383;-90
2024/02/06 03:09:47;;;;;;;7.37;4.60;;;;;;;;;;4951582;28;57873;-91
2024/02/06 03:12:12;;;;;;;9.00;4.93;;;;;;;;;;4950090;28;58843;-91
2024/02/06 03:14:37;;;;;;;8.05;4.65;;;;;;;;;;4950238;28;58095;-90
2024/02/06 03:17:03;;;;;;;9.00;5.85;;;;;;;;;;4947577;28;57830;-90
2024/02/06 03:19:28;;;;;;;8.18;5.15;;;;;;;;;;4951994;28;58712;-90
2024/02/06 03:21:53;;;;;;;8.03;4.90;;;;;;;;;;4951858;28;57820;-90
2024/02/06 03:24:19;;;;;;;8.38;4.90;;;;;;;;;;4952677;28;57782;-91
2024/02/06 03:26:44;;;;;;;11.17;5.07;;;;;;;;;;4949853;28;58654;-90
2024/02/06 03:29:09;;;;;;;8.25;5.05;;;;;;;;;;4948490;28;58113;-90
2024/02/06 03:31:35;;;;;;;11.18;4.78;;;;;;;;;;4961898;28;59112;-91
2024/02/06 03:34:00;;;;;;;11.82;6.75;;;;;;;;;;4962278;28;59935;-91
2024/02/06 03:36:25;;;;;;;8.43;4.80;;;;;;;;;;4948555;28;58096;-92
2024/02/06 03:38:50;;;;;;;8.07;5.83;;;;;;;;;;4953210;28;58039;-91
2024/02/06 03:41:15;;;;;;;7.32;5.50;;;;;;;;;;4955403;28;57865;-91
2024/02/06 03:43:40;;;;;;;8.80;5.05;;;;;;;;;;4953863;28;57791;-91
2024/02/06 03:46:05;;;;;;;5.78;4.28;;;;;;;;;;4964660;28;59602;-91
2024/02/06 03:48:34;;;;;;;8.77;4.93;;;;;;;;;;4962967;28;58017;-91
2024/02/06 03:51:00;;;;;;;9.02;6.10;;;;;;;;;;4954468;28;57913;-91
2024/02/06 03:53:25;;;;;;;5.93;4.53;;;;;;;;;;4954887;28;58193;-90
2024/02/06 03:55:50;;;;;;;12.20;5.00;;;;;;;;;;4954680;28;58065;-90
2024/02/06 03:58:16;;;;;;;6.57;4.33;;;;;;;;;;4953328;28;57867;-90
2024/02/06 04:00:43;;;;;;;9.73;5.10;;;;;;;;;;4952220;28;57959;-89
2024/02/06 04:03:08;;;;;;;8.90;5.27;;;;;;;;;;4953591;28;58857;-91
2024/02/06 04:05:34;;;;;;;5.35;3.70;;;;;;;;;;4948632;28;60643;-90
2024/02/06 04:07:59;;;;;;;6.88;5.18;;;;;;;;;;4951209;28;57675;-90
2024/02/06 04:10:25;;;;;;;7.97;4.55;;;;;;;;;;4953088;28;57885;-91
2024/02/06 04:12:50;;;;;;;9.63;5.32;;;;;;;;;;4952341;28;58123;-91
2024/02/06 04:15:15;;;;;;;7.57;4.67;;;;;;;;;;4949787;28;58032;-91
2024/02/06 04:17:40;;;;;;;5.70;5.03;;;;;;;;;;4954324;28;57832;-91
2024/02/06 04:20:06;;;;;;;6.55;4.47;;;;;;;;;;4950021;28;60101;-91
2024/02/06 04:22:31;;;;;;;7.18;4.28;;;;;;;;;;4953998;28;57786;-91
2024/02/06 04:24:56;;;;;;;10.48;5.30;;;;;;;;;;4951406;28;58182;-91
2024/02/06 04:27:21;;;;;;;6.25;4.15;;;;;;;;;;4950993;28;57900;-91
2024/02/06 04:29:47;;;;;;;8.87;4.03;;;;;;;;;;4951728;28;57928;-92
2024/02/06 04:32:12;;;;;;;7.17;5.17;;;;;;;;;;4952256;28;58446;-91
2024/02/06 04:34:37;;;;;;;8.27;5.13;;;;;;;;;;4941627;28;58016;-91
2024/02/06 04:37:03;;;;;;;6.95;4.38;;;;;;;;;;4947471;28;59716;-91
2024/02/06 04:39:28;;;;;;;9.18;4.35;;;;;;;;;;4950879;28;57993;-91
2024/02/06 04:41:53;;;;;;;7.97;4.35;;;;;;;;;;4950730;28;57814;-91
2024/02/06 04:44:18;;;;;;;8.03;4.30;;;;;;;;;;4954114;28;58803;-91
2024/02/06 04:46:43;;;;;;;6.60;4.73;;;;;;;;;;4951893;28;58086;-91
2024/02/06 04:49:09;;;;;;;6.90;4.03;;;;;;;;;;4963585;28;59166;-92
2024/02/06 04:51:34;;;;;;;6.90;4.27;;;;;;;;;;4951114;28;58060;-91
2024/02/06 04:53:59;;;;;;;5.53;3.67;;;;;;;;;;4951093;28;58042;-91
2024/02/06 04:56:25;;;;;;;7.60;4.93;;;;;;;;;;4948278;28;57838;-91
2024/02/06 04:58:50;;;;;;;7.50;4.15;;;;;;;;;;4952680;28;59051;-90
2024/02/06 05:01:17;;;;;;;7.27;4.30;;;;;;;;;;4952730;28;58232;-89
2024/02/06 05:03:42;;;;;;;6.20;3.75;;;;;;;;;;4951780;28;57961;-91
2024/02/06 05:06:07;;;;;;;6.30;4.07;;;;;;;;;;4945397;28;57932;-90
2024/02/06 05:08:32;;;;;;;5.97;4.37;;;;;;;;;;4953338;28;58018;-91
2024/02/06 05:10:57;;;;;;;4.90;3.70;;;;;;;;;;4951563;28;58110;-91
2024/02/06 05:13:23;;;;;;;6.60;5.33;;;;;;;;;;4954986;28;57918;-91
2024/02/06 05:15:48;;;;;;;6.25;3.80;;;;;;;;;;4950067;28;58085;-91
2024/02/06 05:18:13;;;;;;;5.13;4.33;;;;;;;;;;4950364;28;58062;-91
2024/02/06 05:20:38;;;;;;;5.38;3.85;;;;;;;;;;4953915;28;58295;-91
2024/02/06 05:23:03;;;;;;;7.18;4.35;;;;;;;;;;4952673;28;57823;-91
2024/02/06 05:25:28;;;;;;;8.37;4.40;;;;;;;;;;4951552;28;57963;-91
2024/02/06 05:27:53;;;;;;;6.38;3.83;;;;;;;;;;4954112;28;58324;-90
2024/02/06 05:30:19;;;;;;;6.60;3.70;;;;;;;;;;4950703;28;58186;-91
2024/02/06 05:32:44;;;;;;;4.57;2.93;;;;;;;;;;4955088;28;58076;-91
2024/02/06 05:35:09;;;;;;;7.85;4.10;;;;;;;;;;4946734;28;57815;-91
2024/02/06 05:37:34;;;;;;;5.53;3.73;;;;;;;;;;4948201;28;60156;-92
2024/02/06 05:39:59;;;;;;;6.13;4.13;;;;;;;;;;4956489;28;57916;-91
2024/02/06 05:42:25;;;;;;;6.30;3.67;;;;;;;;;;4952934;28;57935;-92
2024/02/06 05:44:50;;;;;;;7.20;4.40;;;;;;;;;;4950821;28;58214;-94
2024/02/06 05:47:16;;;;;;;6.68;4.85;;;;;;;;;;4955713;28;57775;-93
2024/02/06 05:49:41;;;;;;;4.60;3.28;;;;;;;;;;4964245;28;58337;-93
2024/02/06 05:52:06;;;;;;;7.07;4.03;;;;;;;;;;4946365;28;57854;-90
2024/02/06 05:54:32;;;;;;;7.55;4.28;;;;;;;;;;4944871;28;57825;-83
2024/02/06 05:57:00;;;;;;;7.23;4.27;;;;;;;;;;4945149;28;58443;-95
2024/02/06 05:59:28;;;;;;;7.82;4.35;;;;;;;;;;4940569;28;57867;-93
2024/02/06 06:01:54;;;;;;;10.75;5.50;;;;;;;;;;4957854;28;57864;-89
2024/02/06 06:04:20;;;;;;;6.43;3.63;;;;;;;;;;4949439;28;57853;-95
2024/02/06 06:06:45;;;;;;;11.25;4.65;;;;;;;;;;4950280;28;57872;-95
2024/02/06 06:09:10;;;;;;;8.05;4.72;;;;;;;;;;4953069;28;59065;-95
2024/02/06 06:11:35;;;;;;;12.10;5.53;;;;;;;;;;4950267;28;57833;-95
2024/02/06 06:14:01;;;;;;;10.57;4.38;;;;;;;;;;4966318;28;57916;-94
2024/02/06 06:16:26;;;;;;;8.85;4.95;;;;;;;;;;4953243;28;57937;-95
2024/02/06 06:18:51;;;;;;;5.57;3.70;;;;;;;;;;4954061;28;57698;-95
2024/02/06 06:21:17;;;;;;;6.60;4.30;;;;;;;;;;4953658;28;58079;-94
2024/02/06 06:23:42;;;;;;;7.65;4.82;;;;;;;;;;4951576;28;57941;-95
2024/02/06 06:26:07;;;;;;;7.78;5.47;;;;;;;;;;4951451;28;58435;-94
2024/02/06 06:28:32;;;;;;;9.20;4.60;;;;;;;;;;4953290;28;57936;-95
2024/02/06 06:30:57;;;;;;;9.83;4.33;;;;;;;;;;4954055;28;57426;-95
2024/02/06 06:33:22;;;;;;;10.85;4.78;;;;;;;;;;4945200;28;59343;-92
2024/02/06 06:35:48;;;;;;;7.05;4.03;;;;;;;;;;4945346;28;58296;-93
2024/02/06 06:38:13;;;;;;;9.27;4.83;;;;;;;;;;4955456;28;58068;-93
2024/02/06 06:40:38;;;;;;;9.57;5.25;;;;;;;;;;4954255;28;57791;-93
2024/02/06 06:43:04;;;;;;;6.47;4.20;;;;;;;;;;4955143;28;58930;-92
2024/02/06 06:45:29;;;;;;;5.88;3.95;;;;;;;;;;4955116;28;58023;-91
2024/02/06 06:47:54;;;;;;;10.07;4.63;;;;;;;;;;4951352;28;58014;-94
2024/02/06 06:50:19;;;;;;;6.13;4.05;;;;;;;;;;4956556;28;58208;-92
2024/02/06 06:52:44;;;;;;;14.82;3.80;;;;;;;;;;4972487;28;59395;-93
2024/02/06 06:55:09;;;;;;;6.63;3.83;;;;;;;;;;4956940;28;59180;-93
2024/02/06 06:57:37;;;;;;;7.13;3.70;;;;;;;;;;4951214;28;57600;-94
2024/02/06 07:00:03;;;;;;;10.30;4.60;;;;;;;;;;4959164;28;57833;-92
2024/02/06 07:02:29;;;;;;;8.82;3.85;;;;;;;;;;4956129;28;58124;-93
2024/02/06 07:04:55;;;;;;;6.88;4.20;;;;;;;;;;4956807;28;57946;-93
2024/02/06 07:07:20;;;;;;;9.20;4.43;;;;;;;;;;4953070;28;58017;-93
2024/02/06 07:09:45;;;;;;;6.27;3.03;;;;;;;;;;4956195;28;58266;-92
2024/02/06 07:12:10;;;;;;;7.72;4.22;;;;;;;;;;4953475;28;57635;-94
2024/02/06 07:14:37;;;;;;;7.07;4.18;;;;;;;;;;4956666;28;58199;-92
2024/02/06 07:17:02;;;;;;;8.13;3.67;;;;;;;;;;4954173;28;57784;-92
2024/02/06 07:19:27;;;;;;;7.20;3.50;;;;;;;;;;4961388;28;57977;-93
2024/02/06 07:21:56;;;;;;;7.75;4.10;;;;;;;;;;4956936;28;57954;-94
2024/02/06 07:24:23;;;;;;;7.93;3.95;;;;;;;;;;4957801;28;57715;-93
2024/02/06 07:26:48;;;;;;;6.78;3.83;;;;;;;;;;4956350;28;57714;-93
2024/02/06 07:29:13;;;;;;;6.97;4.32;;;;;;;;;;4969871;28;61063;-93
2024/02/06 07:31:38;;;;;;;9.60;5.43;;;;;;;;;;4962816;28;57781;-93
2024/02/06 07:34:03;;;;;;;5.55;3.85;;;;;;;;;;4956481;28;57794;-92
2024/02/06 07:36:29;;;;;;;7.05;3.47;;;;;;;;;;4965948;28;58050;-93
2024/02/06 07:38:54;;;;;;;5.78;3.80;;;;;;;;;;4950415;28;58740;-94
2024/02/06 07:41:19;;;;;;;6.68;4.05;;;;;;;;;;4951938;28;57887;-92
2024/02/06 07:43:44;;;;;;;5.63;3.15;;;;;;;;;;4960271;28;57922;-93
2024/02/06 07:46:10;;;;;;;7.00;4.23;;;;;;;;;;4957909;28;57987;-93
2024/02/06 07:48:35;;;;;;;7.75;3.88;;;;;;;;;;4963008;28;58290;-93
2024/02/06 07:51:00;;;;;;;7.63;3.60;;;;;;;;;;4962496;28;58079;-93
2024/02/06 07:53:25;;;;;;;8.97;3.90;;;;;;;;;;4957065;28;57784;-93
2024/02/06 07:55:50;;;;;;;6.95;3.50;;;;;;;;;;4970786;28;58100;-92
2024/02/06 07:58:16;;;;;;;6.25;3.80;;;;;;;;;;4973554;28;58660;-92
2024/02/06 08:00:41;;;;;;;4.97;3.58;;;;;;;;;;4961021;28;58392;-93
2024/02/06 08:03:06;;;;;;;4.40;2.93;;;;;;;;;;4963563;28;57774;-93
2024/02/06 08:05:32;;;;;;;4.90;3.93;;;;;;;;;;4960739;28;59191;-92
2024/02/06 08:07:57;;;;;;;6.57;3.70;;;;;;;;;;4950632;28;59618;-93
2024/02/06 08:10:22;;;;;;;4.33;2.80;;;;;;;;;;4959007;28;58090;-92
2024/02/06 08:12:48;;;;;;;5.23;3.97;;;;;;;;;;4961940;28;57879;-94
2024/02/06 08:15:13;;;;;;;7.20;4.05;;;;;;;;;;4955177;28;58159;-92
2024/02/06 08:17:42;;;;;;;8.10;3.60;;;;;;;;;;4959843;28;57976;-93
2024/02/06 08:20:09;;;;;;;7.10;4.22;;;;;;;;;;4953742;28;58479;-93
2024/02/06 08:22:34;;;;;;;6.57;3.45;;;;;;;;;;4957531;28;57821;-91
2024/02/06 08:24:59;;;;;;;4.80;3.43;;;;;;;;;;4959133;28;58082;-93
2024/02/06 08:27:24;;;;;;;5.35;3.40;;;;;;;;;;4958835;28;59120;-93
2024/02/06 08:29:50;;;;;;;5.40;3.25;;;;;;;;;;4956163;28;57986;-93
2024/02/06 08:32:15;;;;;;;4.75;2.88;;;;;;;;;;4954625;28;58058;-93
2024/02/06 08:34:40;;;;;;;4.13;2.85;;;;;;;;;;4950054;28;58016;-94
2024/02/06 08:37:05;;;;;;;3.20;2.70;;;;;;;;;;4961666;28;57986;-93
2024/02/06 08:39:31;;;;;;;3.87;3.47;;;;;;;;;;4953798;28;58075;-93
2024/02/06 08:41:56;;;;;;;4.40;3.22;;;;;;;;;;4954016;28;58098;-92
2024/02/06 08:44:21;;;;;;;3.07;2.57;;;;;;;;;;4958808;28;58116;-93
2024/02/06 08:46:46;;;;;;;5.20;4.10;;;;;;;;;;4957686;28;58028;-93
2024/02/06 08:49:12;;;;;;;6.10;3.03;;;;;;;;;;4962465;28;57907;-93
2024/02/06 08:51:37;;;;;;;4.17;2.83;;;;;;;;;;4955189;28;58130;-93
2024/02/06 08:54:02;;;;;;;5.38;2.83;;;;;;;;;;4966045;28;59295;-93
2024/02/06 08:56:27;;;;;;;4.53;3.80;;;;;;;;;;4948814;28;58091;-93
2024/02/06 08:58:53;;;;;;;4.32;3.53;;;;;;;;;;4959265;28;58003;-93
2024/02/06 09:01:18;;;;;;;4.80;2.85;;;;;;;;;;4956539;28;57942;-94
2024/02/06 09:03:43;;;;;;;4.13;3.20;;;;;;;;;;4958924;28;57930;-92
2024/02/06 09:06:08;;;;;;;8.00;4.13;;;;;;;;;;4960852;28;58032;-92
2024/02/06 09:08:33;;;;;;;4.23;2.70;;;;;;;;;;4962445;28;57840;-93
2024/02/06 09:10:58;;;;;;;5.97;3.78;;;;;;;;;;4967837;28;59465;-93
2024/02/06 09:13:24;;;;;;;4.90;3.28;;;;;;;;;;4963562;28;58107;-93
2024/02/06 09:15:49;;;;;;;3.77;2.67;;;;;;;;;;4955327;28;57808;-92
2024/02/06 09:18:15;;;;;;;3.70;2.60;;;;;;;;;;4954600;28;59618;-93
2024/02/06 09:20:40;;;;;;;4.82;3.22;;;;;;;;;;4957501;28;58237;-93
2024/02/06 09:23:06;;;;;;;3.28;2.65;;;;;;;;;;4954381;28;58042;-93
2024/02/06 09:25:31;;;;;;;3.42;2.78;;;;;;;;;;4969935;28;59811;-93
2024/02/06 09:27:56;;;;;;;3.70;2.60;;;;;;;;;;4961302;28;57626;-94
2024/02/06 09:30:22;;;;;;;3.80;2.50;;;;;;;;;;4957308;28;57956;-93
2024/02/06 09:32:47;;;;;;;4.53;2.92;;;;;;;;;;4955942;28;58155;-93
2024/02/06 09:35:12;;;;;;;3.93;3.33;;;;;;;;;;4954904;28;57962;-93
2024/02/06 09:37:37;;;;;;;4.47;3.70;;;;;;;;;;4956832;28;57930;-93
2024/02/06 09:40:02;;;;;;;4.60;2.53;;;;;;;;;;4959421;28;58378;-92
2024/02/06 09:42:28;;;;;;;5.93;3.17;;;;;;;;;;4954661;28;58096;-93
2024/02/06 09:44:54;;;;;;;6.07;3.78;;;;;;;;;;4955327;28;57961;-92
2024/02/06 09:47:20;;;;;;;4.80;2.95;;;;;;;;;;4957557;28;57885;-93
2024/02/06 09:49:45;;;;;;;7.57;2.95;;;;;;;;;;4959632;28;57840;-93
2024/02/06 09:52:11;;;;;;;4.00;3.07;;;;;;;;;;4957975;28;57952;-94
2024/02/06 09:54:40;;;;;;;3.25;2.67;;;;;;;;;;4963004;28;58098;-94
2024/02/06 09:57:05;;;;;;;4.20;3.00;;;;;;;;;;4956385;28;58768;-93
2024/02/06 09:59:31;;;;;;;4.35;2.65;;;;;;;;;;4957098;28;58442;-94
2024/02/06 10:01:57;;;;;;;2.60;2.30;;;;;;;;;;4956318;28;57556;-94
2024/02/06 10:04:24;;;;;;;7.10;3.70;;;;;;;;;;4957476;28;58042;-94
2024/02/06 10:06:50;;;;;;;5.50;3.10;;;;;;;;;;4959923;28;58086;-93
2024/02/06 10:09:17;;;;;;;5.63;2.53;;;;;;;;;;4960329;28;57743;-93
2024/02/06 10:11:42;;;;;;;3.57;2.50;;;;;;;;;;4956625;28;57975;-93
2024/02/06 10:14:08;;;;;;;4.00;2.83;;;;;;;;;;4959043;28;58098;-93
2024/02/06 10:16:33;;;;;;;4.55;2.63;;;;;;;;;;4955887;28;58114;-93
2024/02/06 10:18:59;;;;;;;3.10;2.50;;;;;;;;;;4955365;28;58095;-93
2024/02/06 10:21:25;;;;;;;3.58;2.60;;;;;;;;;;4962391;28;58238;-93
2024/02/06 10:23:58;;;;;;;4.20;3.03;;;;;;;;;;4953008;28;57813;-93
2024/02/06 10:26:23;;;;;;;4.72;2.53;;;;;;;;;;4954124;28;57791;-92
2024/02/06 10:28:48;;;;;;;5.75;2.60;;;;;;;;;;4961223;28;57761;-93
2024/02/06 10:31:13;;;;;;;5.18;2.78;;;;;;;;;;4957346;28;58087;-93
2024/02/06 10:33:39;;;;;;;5.80;3.13;;;;;;;;;;4958466;28;57900;-93
2024/02/06 10:36:04;;;;;;;4.28;2.95;;;;;;;;;;4951399;28;59860;-94
2024/02/06 10:38:30;;;;;;;7.37;2.50;;;;;;;;;;4954674;28;58371;-93
2024/02/06 10:40:56;;;;;;;4.43;2.42;;;;;;;;;;4955686;28;58187;-93
2024/02/06 10:43:27;;;;;;;4.30;2.70;;;;;;;;;;4959039;28;57790;-94
2024/02/06 10:45:58;;;;;;;4.80;2.47;;;;;;;;;;4954126;28;58175;-93
2024/02/06 10:48:24;;;;;;;6.07;3.67;;;;;;;;;;4961221;28;58126;-92
2024/02/06 10:50:56;;;;;;;3.85;2.65;;;;;;;;;;4970519;28;58137;-92
2024/02/06 10:53:21;;;;;;;2.83;2.33;;;;;;;;;;4956736;28;58028;-94
2024/02/06 10:55:47;;;;;;;3.22;2.20;;;;;;;;;;4953025;28;57844;-93
2024/02/06 10:58:15;;;;;;;4.00;2.17;;;;;;;;;;4963435;28;57919;-93
2024/02/06 11:00:41;;;;;;;;;;;;;;;;;;4963086;28;57847;-94
2024/02/06 11:03:09;;;;;;;2.97;2.67;;;;;;;;;;4958395;28;58198;-93
2024/02/06 11:05:36;;;;;;;3.65;2.67;;;;;;;;;;4957532;28;58218;-93
2024/02/06 11:08:05;;;;;;;3.47;2.65;;;;;;;;;;4968333;28;57938;-93
2024/02/06 11:10:36;;;;;;;3.05;2.33;;;;;;;;;;4956608;28;58945;-93
2024/02/06 11:13:08;;;;;;;2.63;2.40;;;;;;;;;;4955697;28;57963;-92
2024/02/06 11:15:37;;;;;;;4.00;2.95;;;;;;;;;;4958347;28;58914;-92
2024/02/06 11:18:05;;;;;;;2.90;1.98;;;;;;;;;;4960510;28;58460;-93
2024/02/06 11:20:30;;;;;;;;;;;;;;;;;;4972536;28;58383;-93
2024/02/06 11:22:58;;;;;;;3.17;1.97;;;;;;;;;;4970834;28;58750;-93
2024/02/06 11:25:27;;;;;;;4.28;2.78;;;;;;;;;;4953550;28;59107;-92
2024/02/06 11:27:53;;;;;;;4.78;2.92;;;;;;;;;;4952576;28;58330;-92
2024/02/06 11:30:19;;;;;;;2.80;2.20;;;;;;;;;;4955162;28;59104;-93
2024/02/06 11:32:44;;;;;;;2.38;1.98;;;;;;;;;;4955874;28;58348;-92
2024/02/06 11:35:09;;;;;;;2.10;1.90;;;;;;;;;;4956905;28;58822;-93
2024/02/06 11:37:35;;;;;;;2.77;2.07;;;;;;;;;;4965852;28;58983;-94
2024/02/06 11:40:04;;;;;;;2.40;2.20;;;;;;;;;;4954950;28;58370;-93
2024/02/06 11:42:29;;;;;;;2.85;2.10;;;;;;;;;;4970078;28;58974;-92
2024/02/06 11:45:03;;;;;;;2.87;2.07;;;;;;;;;;4953349;28;58512;-93
2024/02/06 11:47:28;;;;;;;3.88;2.40;;;;;;;;;;4969097;28;58426;-92
2024/02/06 11:49:53;;;;;;;2.55;1.40;;;;;;;;;;4956077;28;58677;-93
2024/02/06 11:52:21;;;;;;;2.70;2.05;;;;;;;;;;4968834;28;58431;-92
2024/02/06 11:54:48;;;;;;;2.30;1.80;;;;;;;;;;4955300;28;58475;-93
2024/02/06 11:57:14;;;;;;;3.42;2.70;;;;;;;;;;4964618;28;58414;-92
2024/02/06 11:59:39;;;;;;;4.25;2.50;;;;;;;;;;4956761;28;57964;-93
2024/02/06 12:02:11;;;;;;;2.73;2.10;;;;;;;;;;4956608;28;58902;-93
2024/02/06 12:04:36;;;;;;;4.28;2.65;;;;;;;;;;4952805;28;58488;-92
2024/02/06 12:07:02;;;;;;;2.22;2.03;;;;;;;;;;4958429;28;58466;-92
2024/02/06 12:09:27;;;;;;;3.03;2.55;;;;;;;;;;4952811;28;59720;-93
2024/02/06 12:11:53;;;;;;;2.83;2.60;;;;;;;;;;4953137;28;58625;-93
2024/02/06 12:14:19;;;;;;;2.75;2.05;;;;;;;;;;4957865;28;58394;-92
2024/02/06 12:16:45;;;;;;;2.95;2.13;;;;;;;;;;4954760;28;58461;-94
2024/02/06 12:19:10;;;;;;;2.25;1.98;;;;;;;;;;4951324;28;58410;-94
2024/02/06 12:21:35;;;;;;;2.80;2.20;;;;;;;;;;4958103;28;58549;-93
2024/02/06 12:24:02;;;;;;;2.17;1.50;;;;;;;;;;4957874;28;58207;-92
2024/02/06 12:26:27;;;;;;;3.17;2.00;;;;;;;;;;4958958;28;58350;-93
2024/02/06 12:29:02;;;;;;;2.20;2.00;;;;;;;;;;4945861;28;58865;-87
2024/02/06 12:31:28;;;;;;;5.45;2.88;;;;;;;;;;4956972;28;58911;-89
2024/02/06 12:33:53;;;;;;;4.57;2.53;;;;;;;;;;4961269;28;58609;-94
2024/02/06 12:36:19;;;;;;;5.18;3.10;;;;;;;;;;4964988;28;59627;-94
2024/02/06 12:38:44;;;;;;;4.40;2.17;;;;;;;;;;4951716;28;58343;-92
2024/02/06 12:41:09;;;;;;;5.43;2.55;;;;;;;;;;4950744;28;58703;-92
2024/02/06 12:47:08;;;;;;;5.50;3.28;;;;;;;;;;4954311;28;57740;-96
2024/02/06 12:52:43;;;;;;;7.63;3.35;;;;;;;;;;4952872;28;58365;-92
2024/02/06 13:04:24;;;;;;;8.98;2.67;;;;;;;;;;4956745;28;58182;-93
2024/02/06 13:13:20;;;;;;;6.03;2.65;;;;;;;;;;4953583;28;58406;-96
2024/02/06 13:16:32;;;;;;;5.18;2.53;;;;;;;;;;4894346;28;58918;-96
2024/02/06 13:19:38;;;;;;;4.72;2.63;;;;;;;;;;4844587;29;58570;-95
2024/02/06 13:22:45;;;;;;;5.88;2.53;;;;;;;;;;4826381;29;58931;-95
2024/02/06 13:25:55;;;;;;;5.38;2.60;;;;;;;;;;4772069;29;62599;-93
2024/02/06 13:28:45;;;;;;;4.20;2.15;;;;;;;;;;4810998;29;58998;-93
2024/02/06 13:31:11;;;;;;;4.57;2.17;;;;;;;;;;4824394;29;62736;-93
2024/02/06 13:40:14;;;;;;;7.05;2.92;;;;;;;;;;4836458;28;57834;-96
2024/02/06 13:43:00;;;;;;;;;;;;;;;;;;4933577;22;59199;-72
2024/02/06 13:45:25;;;;;;;3.88;2.17;;;;;;;;;;5022565;28;59680;-70
2024/02/06 13:47:50;;;;;;;4.57;3.10;;;;;;;;;;5023049;28;59807;-72
2024/02/06 13:50:15;;;;;;;5.57;2.53;;;;;;;;;;5021922;28;58328;-72
2024/02/06 13:52:40;;;;;;;3.53;2.20;;;;;;;;;;5020733;28;58759;-72
2024/02/06 13:55:06;;;;;;;4.07;2.13;;;;;;;;;;5022869;28;58450;-73
2024/02/06 13:57:32;;;;;;;4.15;2.08;;;;;;;;;;5023037;28;59230;-72
2024/02/06 13:59:57;;;;;;;6.28;2.25;;;;;;;;;;5023538;28;58563;-73
2024/02/06 14:02:23;;;;;;;3.87;2.13;;;;;;;;;;5021972;28;58312;-72
2024/02/06 14:04:48;;;;;;;4.30;2.57;;;;;;;;;;5023625;28;59468;-70
2024/02/06 14:07:16;;;;;;;6.60;3.17;;;;;;;;;;5022571;28;58512;-75
2024/02/06 14:09:42;;;;;;;5.93;2.67;;;;;;;;;;5021747;28;58493;-76
2024/02/06 14:12:08;;;;;;;6.45;2.25;;;;;;;;;;5024315;28;58496;-76
2024/02/06 14:14:33;;;;;;;3.75;1.73;;;;;;;;;;5022633;28;58411;-75
2024/02/06 14:16:58;;;;;;;7.40;3.03;;;;;;;;;;5022196;28;58916;-76
2024/02/06 14:19:24;;;;;;;4.20;2.47;;;;;;;;;;5022040;28;58775;-75
2024/02/06 14:21:49;;;;;;;4.50;2.33;;;;;;;;;;5017801;28;58407;-76
2024/02/06 14:24:14;;;;;;;10.57;3.00;;;;;;;;;;5022702;28;60329;-76
2024/02/06 14:26:39;;;;;;;2.67;2.03;;;;;;;;;;5020924;28;59171;-74
2024/02/06 14:29:05;;;;;;;7.90;2.97;;;;;;;;;;5020038;28;58356;-76
2024/02/06 14:31:31;;;;;;;5.13;3.08;;;;;;;;;;5022508;28;60273;-74
2024/02/06 14:33:58;;;;;;;8.60;3.17;;;;;;;;;;5021455;28;58551;-75
2024/02/06 14:36:23;;;;;;;5.47;1.98;;;;;;;;;;5022146;28;59521;-75
2024/02/06 14:38:49;;;;;;;7.23;2.70;;;;;;;;;;5019420;28;58428;-75
2024/02/06 14:41:14;;;;;;;7.57;2.33;;;;;;;;;;5022560;28;58297;-74
2024/02/06 14:43:39;;;;;;;3.42;1.85;;;;;;;;;;5022511;28;59525;-74
2024/02/06 14:46:04;;;;;;;5.30;2.40;;;;;;;;;;5022316;28;59140;-74
2024/02/06 14:48:30;;;;;;;5.35;2.80;;;;;;;;;;5022073;28;58416;-75
2024/02/06 14:50:55;;;;;;;7.10;3.28;;;;;;;;;;5021145;28;59388;-75
2024/02/06 14:53:20;;;;;;;4.03;1.70;;;;;;;;;;5023889;28;59703;-75
2024/02/06 14:55:45;;;;;;;4.63;2.10;;;;;;;;;;5024820;28;58440;-75
2024/02/06 14:58:10;;;;;;;2.97;2.05;;;;;;;;;;5022965;28;58643;-76
2024/02/06 15:00:35;;;;;;;5.00;1.70;;;;;;;;;;5021673;28;58439;-72
2024/02/06 15:03:00;;;;;;;7.53;2.25;;;;;;;;;;5022616;28;58390;-72
2024/02/06 15:05:26;;;;;;;2.57;1.90;;;;;;;;;;5020658;28;58700;-74